sensor_id;sensor_type;location;lat;lon;timestamp;P1;durP1;ratioP1;P2;durP2;ratioP2
35592;SDS011;64447;52.140;5.602;2023-04-06T00:01:18;16.45;;;10.40;;
35592;SDS011;64447;52.140;5.602;2023-04-06T00:03:44;16.70;;;10.50;;
35592;SDS011;64447;52.140;5.602;2023-04-06T00:06:10;17.90;;;10.20;;
35592;SDS011;64447;52.140;5.602;2023-04-06T00:08:35;17.88;;;10.32;;
35592;SDS011;64447;52.140;5.602;2023-04-06T00:11:01;19.98;;;10.90;;
35592;SDS011;64447;52.140;5.602;2023-04-06T00:13:26;13.68;;;9.85;;
35592;SDS011;64447;52.140;5.602;2023-04-06T00:15:52;17.85;;;10.55;;
35592;SDS011;64447;52.140;5.602;2023-04-06T00:18:18;14.45;;;9.63;;
35592;SDS011;64447;52.140;5.602;2023-04-06T00:24:06;18.10;;;10.65;;
35592;SDS011;64447;52.140;5.602;2023-04-06T00:26:31;15.25;;;10.43;;
35592;SDS011;64447;52.140;5.602;2023-04-06T00:28:57;16.83;;;9.95;;
35592;SDS011;64447;52.140;5.602;2023-04-06T00:31:23;16.45;;;10.60;;
35592;SDS011;64447;52.140;5.602;2023-04-06T00:33:49;15.88;;;9.20;;
35592;SDS011;64447;52.140;5.602;2023-04-06T00:36:15;17.23;;;8.95;;
35592;SDS011;64447;52.140;5.602;2023-04-06T00:38:40;15.35;;;10.65;;
35592;SDS011;64447;52.140;5.602;2023-04-06T00:41:06;14.35;;;9.15;;
35592;SDS011;64447;52.140;5.602;2023-04-06T00:43:32;13.90;;;9.13;;
35592;SDS011;64447;52.140;5.602;2023-04-06T00:45:57;15.18;;;10.25;;
35592;SDS011;64447;52.140;5.602;2023-04-06T00:48:23;14.45;;;9.43;;
35592;SDS011;64447;52.140;5.602;2023-04-06T00:54:10;17.98;;;9.40;;
35592;SDS011;64447;52.140;5.602;2023-04-06T00:56:36;19.60;;;9.80;;
35592;SDS011;64447;52.140;5.602;2023-04-06T00:59:01;16.80;;;9.50;;
35592;SDS011;64447;52.140;5.602;2023-04-06T01:01:28;14.98;;;9.68;;
35592;SDS011;64447;52.140;5.602;2023-04-06T01:03:54;17.05;;;9.80;;
35592;SDS011;64447;52.140;5.602;2023-04-06T01:06:20;17.02;;;9.75;;
35592;SDS011;64447;52.140;5.602;2023-04-06T01:08:46;16.42;;;10.27;;
35592;SDS011;64447;52.140;5.602;2023-04-06T01:11:12;15.35;;;9.52;;
35592;SDS011;64447;52.140;5.602;2023-04-06T01:13:37;17.98;;;10.32;;
35592;SDS011;64447;52.140;5.602;2023-04-06T01:16:03;20.45;;;10.40;;
35592;SDS011;64447;52.140;5.602;2023-04-06T01:18:29;18.88;;;9.73;;
35592;SDS011;64447;52.140;5.602;2023-04-06T01:24:16;19.58;;;10.73;;
35592;SDS011;64447;52.140;5.602;2023-04-06T01:26:42;21.10;;;11.40;;
35592;SDS011;64447;52.140;5.602;2023-04-06T01:29:08;23.52;;;11.45;;
35592;SDS011;64447;52.140;5.602;2023-04-06T01:31:34;21.60;;;11.43;;
35592;SDS011;64447;52.140;5.602;2023-04-06T01:33:59;24.95;;;12.50;;
35592;SDS011;64447;52.140;5.602;2023-04-06T01:36:25;21.58;;;11.95;;
35592;SDS011;64447;52.140;5.602;2023-04-06T01:38:51;20.55;;;12.05;;
35592;SDS011;64447;52.140;5.602;2023-04-06T01:41:16;24.08;;;11.45;;
35592;SDS011;64447;52.140;5.602;2023-04-06T01:43:42;25.35;;;11.95;;
35592;SDS011;64447;52.140;5.602;2023-04-06T01:46:09;22.80;;;11.05;;
35592;SDS011;64447;52.140;5.602;2023-04-06T01:48:35;26.90;;;11.48;;
35592;SDS011;64447;52.140;5.602;2023-04-06T01:54:23;16.80;;;10.65;;
35592;SDS011;64447;52.140;5.602;2023-04-06T01:56:49;22.23;;;11.45;;
35592;SDS011;64447;52.140;5.602;2023-04-06T01:59:16;17.48;;;11.05;;
35592;SDS011;64447;52.140;5.602;2023-04-06T02:01:42;17.13;;;10.68;;
35592;SDS011;64447;52.140;5.602;2023-04-06T02:04:07;20.45;;;10.45;;
35592;SDS011;64447;52.140;5.602;2023-04-06T02:06:33;19.20;;;10.80;;
35592;SDS011;64447;52.140;5.602;2023-04-06T02:08:58;17.15;;;10.63;;
35592;SDS011;64447;52.140;5.602;2023-04-06T02:11:24;18.65;;;10.20;;
35592;SDS011;64447;52.140;5.602;2023-04-06T02:13:50;17.13;;;10.50;;
35592;SDS011;64447;52.140;5.602;2023-04-06T02:16:15;17.25;;;9.85;;
35592;SDS011;64447;52.140;5.602;2023-04-06T02:18:41;16.98;;;9.63;;
35592;SDS011;64447;52.140;5.602;2023-04-06T02:24:28;14.90;;;10.13;;
35592;SDS011;64447;52.140;5.602;2023-04-06T02:26:54;16.50;;;9.73;;
35592;SDS011;64447;52.140;5.602;2023-04-06T02:29:20;17.95;;;9.13;;
35592;SDS011;64447;52.140;5.602;2023-04-06T02:31:46;18.02;;;10.52;;
35592;SDS011;64447;52.140;5.602;2023-04-06T02:34:11;19.83;;;10.52;;
35592;SDS011;64447;52.140;5.602;2023-04-06T02:36:42;19.42;;;11.05;;
35592;SDS011;64447;52.140;5.602;2023-04-06T02:39:11;16.70;;;10.30;;
35592;SDS011;64447;52.140;5.602;2023-04-06T02:41:37;17.88;;;9.98;;
35592;SDS011;64447;52.140;5.602;2023-04-06T02:44:03;16.35;;;10.05;;
35592;SDS011;64447;52.140;5.602;2023-04-06T02:46:29;18.88;;;11.05;;
35592;SDS011;64447;52.140;5.602;2023-04-06T02:48:54;16.30;;;9.77;;
35592;SDS011;64447;52.140;5.602;2023-04-06T02:54:43;17.40;;;10.13;;
35592;SDS011;64447;52.140;5.602;2023-04-06T02:57:09;15.65;;;9.98;;
35592;SDS011;64447;52.140;5.602;2023-04-06T02:59:34;17.85;;;10.25;;
35592;SDS011;64447;52.140;5.602;2023-04-06T03:02:00;15.73;;;10.85;;
35592;SDS011;64447;52.140;5.602;2023-04-06T03:04:26;16.02;;;10.05;;
35592;SDS011;64447;52.140;5.602;2023-04-06T03:06:51;20.50;;;10.80;;
35592;SDS011;64447;52.140;5.602;2023-04-06T03:09:18;19.90;;;11.32;;
35592;SDS011;64447;52.140;5.602;2023-04-06T03:11:44;19.48;;;11.52;;
35592;SDS011;64447;52.140;5.602;2023-04-06T03:14:10;20.05;;;11.98;;
35592;SDS011;64447;52.140;5.602;2023-04-06T03:16:35;18.73;;;11.70;;
35592;SDS011;64447;52.140;5.602;2023-04-06T03:19:01;18.65;;;10.88;;
35592;SDS011;64447;52.140;5.602;2023-04-06T03:24:49;13.73;;;9.80;;
35592;SDS011;64447;52.140;5.602;2023-04-06T03:27:14;16.98;;;10.70;;
35592;SDS011;64447;52.140;5.602;2023-04-06T03:29:40;17.45;;;10.57;;
35592;SDS011;64447;52.140;5.602;2023-04-06T03:32:05;17.98;;;10.35;;
35592;SDS011;64447;52.140;5.602;2023-04-06T03:34:31;16.60;;;11.05;;
35592;SDS011;64447;52.140;5.602;2023-04-06T03:36:57;16.33;;;11.23;;
35592;SDS011;64447;52.140;5.602;2023-04-06T03:39:22;16.95;;;11.23;;
35592;SDS011;64447;52.140;5.602;2023-04-06T03:41:48;16.75;;;11.18;;
35592;SDS011;64447;52.140;5.602;2023-04-06T03:44:13;16.70;;;11.13;;
35592;SDS011;64447;52.140;5.602;2023-04-06T03:46:39;17.05;;;11.18;;
35592;SDS011;64447;52.140;5.602;2023-04-06T03:49:05;16.17;;;11.05;;
35592;SDS011;64447;52.140;5.602;2023-04-06T03:54:52;17.10;;;11.13;;
35592;SDS011;64447;52.140;5.602;2023-04-06T03:57:18;17.65;;;10.98;;
35592;SDS011;64447;52.140;5.602;2023-04-06T03:59:44;19.75;;;11.57;;
35592;SDS011;64447;52.140;5.602;2023-04-06T04:02:09;19.08;;;11.73;;
35592;SDS011;64447;52.140;5.602;2023-04-06T04:04:35;16.33;;;10.40;;
35592;SDS011;64447;52.140;5.602;2023-04-06T04:07:01;16.30;;;11.23;;
35592;SDS011;64447;52.140;5.602;2023-04-06T04:09:26;18.00;;;11.32;;
35592;SDS011;64447;52.140;5.602;2023-04-06T04:11:52;18.25;;;10.77;;
35592;SDS011;64447;52.140;5.602;2023-04-06T04:14:17;17.58;;;10.88;;
35592;SDS011;64447;52.140;5.602;2023-04-06T04:16:43;15.98;;;10.80;;
35592;SDS011;64447;52.140;5.602;2023-04-06T04:19:08;15.93;;;11.18;;
35592;SDS011;64447;52.140;5.602;2023-04-06T04:24:56;17.77;;;11.23;;
35592;SDS011;64447;52.140;5.602;2023-04-06T04:27:21;16.42;;;11.43;;
35592;SDS011;64447;52.140;5.602;2023-04-06T04:29:47;16.58;;;10.32;;
35592;SDS011;64447;52.140;5.602;2023-04-06T04:32:12;19.35;;;11.75;;
35592;SDS011;64447;52.140;5.602;2023-04-06T04:34:38;16.48;;;11.55;;
35592;SDS011;64447;52.140;5.602;2023-04-06T04:37:06;19.30;;;10.40;;
35592;SDS011;64447;52.140;5.602;2023-04-06T04:39:32;20.92;;;12.25;;
35592;SDS011;64447;52.140;5.602;2023-04-06T04:41:58;19.90;;;11.98;;
35592;SDS011;64447;52.140;5.602;2023-04-06T04:44:23;19.45;;;11.35;;
35592;SDS011;64447;52.140;5.602;2023-04-06T04:46:49;19.77;;;11.75;;
35592;SDS011;64447;52.140;5.602;2023-04-06T04:49:15;20.27;;;11.68;;
35592;SDS011;64447;52.140;5.602;2023-04-06T04:55:03;17.83;;;11.60;;
35592;SDS011;64447;52.140;5.602;2023-04-06T04:57:28;20.20;;;12.00;;
35592;SDS011;64447;52.140;5.602;2023-04-06T04:59:54;20.30;;;11.45;;
35592;SDS011;64447;52.140;5.602;2023-04-06T05:02:20;21.35;;;11.75;;
35592;SDS011;64447;52.140;5.602;2023-04-06T05:04:45;18.85;;;11.32;;
35592;SDS011;64447;52.140;5.602;2023-04-06T05:07:11;19.27;;;11.35;;
35592;SDS011;64447;52.140;5.602;2023-04-06T05:09:36;17.95;;;11.77;;
35592;SDS011;64447;52.140;5.602;2023-04-06T05:12:02;20.95;;;12.27;;
35592;SDS011;64447;52.140;5.602;2023-04-06T05:14:28;20.90;;;12.15;;
35592;SDS011;64447;52.140;5.602;2023-04-06T05:16:54;17.95;;;11.63;;
35592;SDS011;64447;52.140;5.602;2023-04-06T05:19:20;22.05;;;11.95;;
35592;SDS011;64447;52.140;5.602;2023-04-06T05:25:08;21.55;;;12.48;;
35592;SDS011;64447;52.140;5.602;2023-04-06T05:27:33;20.40;;;11.23;;
35592;SDS011;64447;52.140;5.602;2023-04-06T05:29:59;18.63;;;11.23;;
35592;SDS011;64447;52.140;5.602;2023-04-06T05:32:25;19.42;;;12.68;;
35592;SDS011;64447;52.140;5.602;2023-04-06T05:34:52;20.63;;;13.10;;
35592;SDS011;64447;52.140;5.602;2023-04-06T05:37:17;21.20;;;12.13;;
35592;SDS011;64447;52.140;5.602;2023-04-06T05:39:43;22.67;;;12.23;;
35592;SDS011;64447;52.140;5.602;2023-04-06T05:42:09;20.80;;;12.15;;
35592;SDS011;64447;52.140;5.602;2023-04-06T05:44:36;25.10;;;12.70;;
35592;SDS011;64447;52.140;5.602;2023-04-06T05:47:02;21.10;;;11.75;;
35592;SDS011;64447;52.140;5.602;2023-04-06T05:49:27;21.17;;;12.13;;
35592;SDS011;64447;52.140;5.602;2023-04-06T05:55:15;18.80;;;10.77;;
35592;SDS011;64447;52.140;5.602;2023-04-06T05:57:41;22.55;;;12.32;;
35592;SDS011;64447;52.140;5.602;2023-04-06T06:00:07;19.80;;;11.77;;
35592;SDS011;64447;52.140;5.602;2023-04-06T06:02:34;18.33;;;12.73;;
35592;SDS011;64447;52.140;5.602;2023-04-06T06:04:59;22.48;;;13.23;;
35592;SDS011;64447;52.140;5.602;2023-04-06T06:07:25;24.98;;;13.35;;
35592;SDS011;64447;52.140;5.602;2023-04-06T06:09:51;20.48;;;12.52;;
35592;SDS011;64447;52.140;5.602;2023-04-06T06:12:16;24.88;;;13.50;;
35592;SDS011;64447;52.140;5.602;2023-04-06T06:14:42;22.42;;;13.52;;
35592;SDS011;64447;52.140;5.602;2023-04-06T06:17:08;23.63;;;13.40;;
35592;SDS011;64447;52.140;5.602;2023-04-06T06:19:33;20.45;;;12.95;;
35592;SDS011;64447;52.140;5.602;2023-04-06T06:25:21;21.48;;;13.65;;
35592;SDS011;64447;52.140;5.602;2023-04-06T06:27:46;21.52;;;13.07;;
35592;SDS011;64447;52.140;5.602;2023-04-06T06:30:12;23.60;;;13.65;;
35592;SDS011;64447;52.140;5.602;2023-04-06T06:32:38;26.05;;;14.10;;
35592;SDS011;64447;52.140;5.602;2023-04-06T06:35:04;25.55;;;14.07;;
35592;SDS011;64447;52.140;5.602;2023-04-06T06:37:30;27.67;;;14.65;;
35592;SDS011;64447;52.140;5.602;2023-04-06T06:39:56;23.90;;;14.25;;
35592;SDS011;64447;52.140;5.602;2023-04-06T06:42:21;23.20;;;13.57;;
35592;SDS011;64447;52.140;5.602;2023-04-06T06:44:47;27.27;;;15.18;;
35592;SDS011;64447;52.140;5.602;2023-04-06T06:47:12;24.88;;;14.05;;
35592;SDS011;64447;52.140;5.602;2023-04-06T06:49:38;22.00;;;14.75;;
35592;SDS011;64447;52.140;5.602;2023-04-06T06:55:26;23.77;;;16.05;;
35592;SDS011;64447;52.140;5.602;2023-04-06T06:57:52;25.88;;;15.05;;
35592;SDS011;64447;52.140;5.602;2023-04-06T07:00:18;26.23;;;15.13;;
35592;SDS011;64447;52.140;5.602;2023-04-06T07:02:46;24.02;;;15.10;;
35592;SDS011;64447;52.140;5.602;2023-04-06T07:05:12;30.42;;;15.35;;
35592;SDS011;64447;52.140;5.602;2023-04-06T07:07:38;26.80;;;15.02;;
35592;SDS011;64447;52.140;5.602;2023-04-06T07:10:04;25.08;;;16.05;;
35592;SDS011;64447;52.140;5.602;2023-04-06T07:12:30;25.90;;;15.85;;
35592;SDS011;64447;52.140;5.602;2023-04-06T07:14:56;26.33;;;15.13;;
35592;SDS011;64447;52.140;5.602;2023-04-06T07:17:21;24.92;;;15.68;;
35592;SDS011;64447;52.140;5.602;2023-04-06T07:19:47;26.63;;;15.57;;
35592;SDS011;64447;52.140;5.602;2023-04-06T07:25:34;27.70;;;16.23;;
35592;SDS011;64447;52.140;5.602;2023-04-06T07:28:01;30.75;;;18.25;;
35592;SDS011;64447;52.140;5.602;2023-04-06T07:30:29;29.20;;;17.02;;
35592;SDS011;64447;52.140;5.602;2023-04-06T07:32:55;26.52;;;14.73;;
35592;SDS011;64447;52.140;5.602;2023-04-06T07:35:25;28.85;;;15.93;;
35592;SDS011;64447;52.140;5.602;2023-04-06T07:37:52;27.45;;;15.98;;
35592;SDS011;64447;52.140;5.602;2023-04-06T07:40:18;23.92;;;15.90;;
35592;SDS011;64447;52.140;5.602;2023-04-06T07:42:44;26.33;;;16.13;;
35592;SDS011;64447;52.140;5.602;2023-04-06T07:45:10;26.25;;;15.77;;
35592;SDS011;64447;52.140;5.602;2023-04-06T07:47:36;26.15;;;16.13;;
35592;SDS011;64447;52.140;5.602;2023-04-06T07:50:02;26.65;;;15.50;;
35592;SDS011;64447;52.140;5.602;2023-04-06T07:55:49;26.73;;;16.13;;
35592;SDS011;64447;52.140;5.602;2023-04-06T07:58:15;29.08;;;17.05;;
35592;SDS011;64447;52.140;5.602;2023-04-06T08:00:40;26.25;;;16.15;;
35592;SDS011;64447;52.140;5.602;2023-04-06T08:03:06;26.33;;;16.23;;
35592;SDS011;64447;52.140;5.602;2023-04-06T08:05:32;26.38;;;16.08;;
35592;SDS011;64447;52.140;5.602;2023-04-06T08:07:57;27.60;;;16.13;;
35592;SDS011;64447;52.140;5.602;2023-04-06T08:10:23;25.95;;;15.90;;
35592;SDS011;64447;52.140;5.602;2023-04-06T08:12:48;25.52;;;15.50;;
35592;SDS011;64447;52.140;5.602;2023-04-06T08:15:14;26.65;;;16.23;;
35592;SDS011;64447;52.140;5.602;2023-04-06T08:17:40;27.52;;;16.88;;
35592;SDS011;64447;52.140;5.602;2023-04-06T08:20:05;28.38;;;17.00;;
35592;SDS011;64447;52.140;5.602;2023-04-06T08:25:53;30.83;;;16.38;;
35592;SDS011;64447;52.140;5.602;2023-04-06T08:28:19;27.98;;;17.45;;
35592;SDS011;64447;52.140;5.602;2023-04-06T08:30:46;28.60;;;17.00;;
35592;SDS011;64447;52.140;5.602;2023-04-06T08:33:12;27.30;;;16.95;;
35592;SDS011;64447;52.140;5.602;2023-04-06T08:35:37;29.05;;;17.80;;
35592;SDS011;64447;52.140;5.602;2023-04-06T08:38:03;28.73;;;16.02;;
35592;SDS011;64447;52.140;5.602;2023-04-06T08:40:28;28.75;;;17.08;;
35592;SDS011;64447;52.140;5.602;2023-04-06T08:42:55;27.98;;;17.60;;
35592;SDS011;64447;52.140;5.602;2023-04-06T08:45:22;29.10;;;18.00;;
35592;SDS011;64447;52.140;5.602;2023-04-06T08:47:49;32.65;;;18.23;;
35592;SDS011;64447;52.140;5.602;2023-04-06T08:50:16;33.60;;;18.65;;
35592;SDS011;64447;52.140;5.602;2023-04-06T08:56:05;29.98;;;17.98;;
35592;SDS011;64447;52.140;5.602;2023-04-06T08:58:34;30.35;;;18.13;;
35592;SDS011;64447;52.140;5.602;2023-04-06T09:01:02;29.30;;;18.42;;
35592;SDS011;64447;52.140;5.602;2023-04-06T09:03:32;31.80;;;18.85;;
35592;SDS011;64447;52.140;5.602;2023-04-06T09:06:02;34.55;;;19.27;;
35592;SDS011;64447;52.140;5.602;2023-04-06T09:08:29;29.15;;;17.30;;
35592;SDS011;64447;52.140;5.602;2023-04-06T09:10:55;30.73;;;17.60;;
35592;SDS011;64447;52.140;5.602;2023-04-06T09:13:20;30.63;;;18.45;;
35592;SDS011;64447;52.140;5.602;2023-04-06T09:15:46;31.65;;;18.67;;
35592;SDS011;64447;52.140;5.602;2023-04-06T09:18:32;34.47;;;18.98;;
35592;SDS011;64447;52.140;5.602;2023-04-06T09:23:31;31.30;;;19.67;;
35592;SDS011;64447;52.140;5.602;2023-04-06T09:28:41;30.38;;;19.65;;
35592;SDS011;64447;52.140;5.602;2023-04-06T09:31:10;30.85;;;19.95;;
35592;SDS011;64447;52.140;5.602;2023-04-06T09:33:41;30.98;;;19.67;;
35592;SDS011;64447;52.140;5.602;2023-04-06T09:36:09;32.63;;;19.30;;
35592;SDS011;64447;52.140;5.602;2023-04-06T09:38:38;28.17;;;18.70;;
35592;SDS011;64447;52.140;5.602;2023-04-06T09:41:20;31.80;;;20.20;;
35592;SDS011;64447;52.140;5.602;2023-04-06T09:44:03;40.00;;;20.52;;
35592;SDS011;64447;52.140;5.602;2023-04-06T09:46:32;33.50;;;20.17;;
35592;SDS011;64447;52.140;5.602;2023-04-06T09:49:18;34.88;;;21.05;;
35592;SDS011;64447;52.140;5.602;2023-04-06T09:51:49;30.55;;;19.90;;
35592;SDS011;64447;52.140;5.602;2023-04-06T09:54:20;35.97;;;20.77;;
35592;SDS011;64447;52.140;5.602;2023-04-06T09:56:53;35.40;;;20.00;;
35592;SDS011;64447;52.140;5.602;2023-04-06T09:59:52;34.67;;;20.17;;
35592;SDS011;64447;52.140;5.602;2023-04-06T10:07:32;35.90;;;20.00;;
35592;SDS011;64447;52.140;5.602;2023-04-06T10:09:58;33.90;;;20.80;;
35592;SDS011;64447;52.140;5.602;2023-04-06T10:12:25;35.50;;;22.83;;
35592;SDS011;64447;52.140;5.602;2023-04-06T10:14:50;34.88;;;20.67;;
35592;SDS011;64447;52.140;5.602;2023-04-06T10:17:16;35.58;;;21.05;;
35592;SDS011;64447;52.140;5.602;2023-04-06T10:22:26;32.80;;;20.35;;
35592;SDS011;64447;52.140;5.602;2023-04-06T10:24:55;36.83;;;22.48;;
35592;SDS011;64447;52.140;5.602;2023-04-06T10:27:30;33.38;;;21.13;;
35592;SDS011;64447;52.140;5.602;2023-04-06T10:30:01;36.90;;;21.70;;
35592;SDS011;64447;52.140;5.602;2023-04-06T10:32:37;36.17;;;21.92;;
35592;SDS011;64447;52.140;5.602;2023-04-06T10:35:07;40.28;;;24.13;;
35592;SDS011;64447;52.140;5.602;2023-04-06T10:37:45;38.63;;;21.50;;
35592;SDS011;64447;52.140;5.602;2023-04-06T10:40:17;36.10;;;21.92;;
35592;SDS011;64447;52.140;5.602;2023-04-06T10:42:53;39.33;;;21.05;;
35592;SDS011;64447;52.140;5.602;2023-04-06T10:45:20;33.22;;;21.08;;
35592;SDS011;64447;52.140;5.602;2023-04-06T10:47:46;35.53;;;21.10;;
35592;SDS011;64447;52.140;5.602;2023-04-06T10:50:15;30.30;;;18.75;;
35592;SDS011;64447;52.140;5.602;2023-04-06T10:52:43;28.73;;;18.25;;
35592;SDS011;64447;52.140;5.602;2023-04-06T10:55:09;27.20;;;17.77;;
35592;SDS011;64447;52.140;5.602;2023-04-06T10:57:37;29.80;;;16.75;;
35592;SDS011;64447;52.140;5.602;2023-04-06T11:00:05;25.85;;;15.73;;
35592;SDS011;64447;52.140;5.602;2023-04-06T11:02:31;25.25;;;15.65;;
35592;SDS011;64447;52.140;5.602;2023-04-06T11:04:57;24.02;;;14.65;;
35592;SDS011;64447;52.140;5.602;2023-04-06T11:07:24;25.30;;;14.27;;
35592;SDS011;64447;52.140;5.602;2023-04-06T11:09:55;24.30;;;14.88;;
35592;SDS011;64447;52.140;5.602;2023-04-06T11:12:22;23.23;;;15.63;;
35592;SDS011;64447;52.140;5.602;2023-04-06T11:14:53;23.95;;;15.48;;
35592;SDS011;64447;52.140;5.602;2023-04-06T11:17:30;28.25;;;15.70;;
35592;SDS011;64447;52.140;5.602;2023-04-06T11:19:59;21.08;;;14.23;;
35592;SDS011;64447;52.140;5.602;2023-04-06T11:22:25;18.42;;;12.30;;
35592;SDS011;64447;52.140;5.602;2023-04-06T11:24:51;19.27;;;12.18;;
35592;SDS011;64447;52.140;5.602;2023-04-06T11:27:18;23.60;;;13.20;;
35592;SDS011;64447;52.140;5.602;2023-04-06T11:29:44;19.45;;;11.82;;
35592;SDS011;64447;52.140;5.602;2023-04-06T11:32:21;18.92;;;12.40;;
35592;SDS011;64447;52.140;5.602;2023-04-06T11:34:47;16.13;;;10.55;;
35592;SDS011;64447;52.140;5.602;2023-04-06T11:37:13;13.65;;;8.30;;
35592;SDS011;64447;52.140;5.602;2023-04-06T11:39:52;14.98;;;8.85;;
35592;SDS011;64447;52.140;5.602;2023-04-06T11:42:23;13.73;;;8.65;;
35592;SDS011;64447;52.140;5.602;2023-04-06T11:44:51;13.35;;;9.50;;
35592;SDS011;64447;52.140;5.602;2023-04-06T11:47:27;13.63;;;9.27;;
35592;SDS011;64447;52.140;5.602;2023-04-06T11:50:05;14.73;;;9.55;;
35592;SDS011;64447;52.140;5.602;2023-04-06T11:52:38;13.48;;;9.48;;
35592;SDS011;64447;52.140;5.602;2023-04-06T11:55:11;14.43;;;9.32;;
35592;SDS011;64447;52.140;5.602;2023-04-06T11:57:40;12.85;;;9.00;;
35592;SDS011;64447;52.140;5.602;2023-04-06T12:00:07;16.25;;;9.38;;
35592;SDS011;64447;52.140;5.602;2023-04-06T12:02:34;13.05;;;8.85;;
35592;SDS011;64447;52.140;5.602;2023-04-06T12:05:02;15.38;;;9.93;;
35592;SDS011;64447;52.140;5.602;2023-04-06T12:07:30;17.23;;;10.48;;
35592;SDS011;64447;52.140;5.602;2023-04-06T12:09:56;15.57;;;10.10;;
35592;SDS011;64447;52.140;5.602;2023-04-06T12:12:21;13.68;;;9.43;;
35592;SDS011;64447;52.140;5.602;2023-04-06T12:14:47;14.65;;;9.55;;
35592;SDS011;64447;52.140;5.602;2023-04-06T12:17:12;14.57;;;10.20;;
35592;SDS011;64447;52.140;5.602;2023-04-06T12:19:38;17.00;;;9.68;;
35592;SDS011;64447;52.140;5.602;2023-04-06T12:22:04;12.70;;;8.75;;
35592;SDS011;64447;52.140;5.602;2023-04-06T12:24:30;13.50;;;8.45;;
35592;SDS011;64447;52.140;5.602;2023-04-06T12:26:55;13.88;;;8.68;;
35592;SDS011;64447;52.140;5.602;2023-04-06T12:29:22;12.88;;;8.55;;
35592;SDS011;64447;52.140;5.602;2023-04-06T12:31:48;14.27;;;7.43;;
35592;SDS011;64447;52.140;5.602;2023-04-06T12:34:14;12.77;;;7.43;;
35592;SDS011;64447;52.140;5.602;2023-04-06T12:36:40;11.95;;;7.78;;
35592;SDS011;64447;52.140;5.602;2023-04-06T12:39:05;11.25;;;7.28;;
35592;SDS011;64447;52.140;5.602;2023-04-06T12:41:31;12.65;;;7.45;;
35592;SDS011;64447;52.140;5.602;2023-04-06T12:43:57;12.35;;;7.15;;
35592;SDS011;64447;52.140;5.602;2023-04-06T12:46:24;12.48;;;7.78;;
35592;SDS011;64447;52.140;5.602;2023-04-06T12:48:52;11.90;;;8.05;;
35592;SDS011;64447;52.140;5.602;2023-04-06T12:51:18;10.57;;;7.22;;
35592;SDS011;64447;52.140;5.602;2023-04-06T12:57:07;13.18;;;8.15;;
35592;SDS011;64447;52.140;5.602;2023-04-06T12:59:34;13.75;;;8.45;;
35592;SDS011;64447;52.140;5.602;2023-04-06T13:02:00;13.38;;;7.72;;
35592;SDS011;64447;52.140;5.602;2023-04-06T13:04:26;11.77;;;8.02;;
35592;SDS011;64447;52.140;5.602;2023-04-06T13:06:51;13.80;;;8.27;;
35592;SDS011;64447;52.140;5.602;2023-04-06T13:09:17;12.73;;;8.10;;
35592;SDS011;64447;52.140;5.602;2023-04-06T13:11:43;10.98;;;8.02;;
35592;SDS011;64447;52.140;5.602;2023-04-06T13:14:08;13.02;;;8.30;;
35592;SDS011;64447;52.140;5.602;2023-04-06T13:16:34;12.93;;;8.00;;
35592;SDS011;64447;52.140;5.602;2023-04-06T13:19:01;15.70;;;8.45;;
35592;SDS011;64447;52.140;5.602;2023-04-06T13:21:27;14.55;;;8.25;;
35592;SDS011;64447;52.140;5.602;2023-04-06T13:27:15;14.68;;;8.20;;
35592;SDS011;64447;52.140;5.602;2023-04-06T13:29:40;13.68;;;8.30;;
35592;SDS011;64447;52.140;5.602;2023-04-06T13:32:06;16.02;;;9.27;;
35592;SDS011;64447;52.140;5.602;2023-04-06T13:34:34;14.18;;;9.10;;
35592;SDS011;64447;52.140;5.602;2023-04-06T13:37:00;15.32;;;9.07;;
35592;SDS011;64447;52.140;5.602;2023-04-06T13:39:26;12.05;;;9.10;;
35592;SDS011;64447;52.140;5.602;2023-04-06T13:41:53;13.20;;;8.50;;
35592;SDS011;64447;52.140;5.602;2023-04-06T13:44:21;12.35;;;8.63;;
35592;SDS011;64447;52.140;5.602;2023-04-06T13:46:46;14.20;;;8.77;;
35592;SDS011;64447;52.140;5.602;2023-04-06T13:49:12;11.52;;;8.02;;
35592;SDS011;64447;52.140;5.602;2023-04-06T13:51:38;14.73;;;8.95;;
35592;SDS011;64447;52.140;5.602;2023-04-06T13:57:26;12.55;;;9.15;;
35592;SDS011;64447;52.140;5.602;2023-04-06T13:59:51;13.43;;;9.20;;
35592;SDS011;64447;52.140;5.602;2023-04-06T14:02:17;14.20;;;8.75;;
35592;SDS011;64447;52.140;5.602;2023-04-06T14:04:44;14.32;;;9.07;;
35592;SDS011;64447;52.140;5.602;2023-04-06T14:07:10;13.95;;;9.13;;
35592;SDS011;64447;52.140;5.602;2023-04-06T14:09:35;13.40;;;9.18;;
35592;SDS011;64447;52.140;5.602;2023-04-06T14:12:01;15.70;;;9.20;;
35592;SDS011;64447;52.140;5.602;2023-04-06T14:14:27;13.52;;;9.18;;
35592;SDS011;64447;52.140;5.602;2023-04-06T14:16:52;15.02;;;9.35;;
35592;SDS011;64447;52.140;5.602;2023-04-06T14:19:19;17.77;;;9.73;;
35592;SDS011;64447;52.140;5.602;2023-04-06T14:21:46;16.90;;;10.60;;
35592;SDS011;64447;52.140;5.602;2023-04-06T14:27:33;14.73;;;9.30;;
35592;SDS011;64447;52.140;5.602;2023-04-06T14:29:59;15.52;;;9.95;;
35592;SDS011;64447;52.140;5.602;2023-04-06T14:32:25;16.20;;;10.50;;
35592;SDS011;64447;52.140;5.602;2023-04-06T14:34:51;15.63;;;10.88;;
35592;SDS011;64447;52.140;5.602;2023-04-06T14:37:17;15.35;;;9.68;;
35592;SDS011;64447;52.140;5.602;2023-04-06T14:39:43;19.27;;;10.55;;
35592;SDS011;64447;52.140;5.602;2023-04-06T14:42:09;16.33;;;10.40;;
35592;SDS011;64447;52.140;5.602;2023-04-06T14:44:35;18.98;;;10.75;;
35592;SDS011;64447;52.140;5.602;2023-04-06T14:47:02;18.33;;;10.73;;
35592;SDS011;64447;52.140;5.602;2023-04-06T14:49:29;16.60;;;10.85;;
35592;SDS011;64447;52.140;5.602;2023-04-06T14:51:55;14.35;;;9.65;;
35592;SDS011;64447;52.140;5.602;2023-04-06T14:57:42;16.35;;;10.25;;
35592;SDS011;64447;52.140;5.602;2023-04-06T15:00:08;16.70;;;11.80;;
35592;SDS011;64447;52.140;5.602;2023-04-06T15:02:35;17.50;;;10.70;;
35592;SDS011;64447;52.140;5.602;2023-04-06T15:05:01;17.48;;;11.43;;
35592;SDS011;64447;52.140;5.602;2023-04-06T15:07:27;18.60;;;12.00;;
35592;SDS011;64447;52.140;5.602;2023-04-06T15:13:15;18.75;;;12.20;;
35592;SDS011;64447;52.140;5.602;2023-04-06T15:15:41;17.90;;;12.00;;
35592;SDS011;64447;52.140;5.602;2023-04-06T15:18:08;19.25;;;12.65;;
35592;SDS011;64447;52.140;5.602;2023-04-06T15:20:34;19.70;;;12.18;;
35592;SDS011;64447;52.140;5.602;2023-04-06T15:23:00;17.85;;;11.90;;
35592;SDS011;64447;52.140;5.602;2023-04-06T15:25:27;24.10;;;13.30;;
35592;SDS011;64447;52.140;5.602;2023-04-06T15:27:54;18.40;;;12.88;;
35592;SDS011;64447;52.140;5.602;2023-04-06T15:30:19;19.70;;;12.13;;
35592;SDS011;64447;52.140;5.602;2023-04-06T15:32:55;19.20;;;13.23;;
35592;SDS011;64447;52.140;5.602;2023-04-06T15:35:24;16.20;;;11.50;;
35592;SDS011;64447;52.140;5.602;2023-04-06T15:44:34;19.55;;;13.43;;
35592;SDS011;64447;52.140;5.602;2023-04-06T15:46:59;18.13;;;12.32;;
35592;SDS011;64447;52.140;5.602;2023-04-06T15:49:25;25.98;;;13.07;;
35592;SDS011;64447;52.140;5.602;2023-04-06T15:51:51;18.10;;;12.35;;
35592;SDS011;64447;52.140;5.602;2023-04-06T15:54:16;20.95;;;11.98;;
35592;SDS011;64447;52.140;5.602;2023-04-06T15:56:44;18.13;;;12.00;;
35592;SDS011;64447;52.140;5.602;2023-04-06T15:59:10;20.08;;;13.02;;
35592;SDS011;64447;52.140;5.602;2023-04-06T16:01:36;19.83;;;13.27;;
35592;SDS011;64447;52.140;5.602;2023-04-06T16:04:05;20.30;;;12.80;;